Time;durP1;ratioP1;P1;durP2;ratioP2;P2;SDS_P1;SDS_P2;PMS_P1;PMS_P2;Temp;Humidity;BMP_temperature;BMP_pressure;BME280_temperature;BME280_humidity;BME280_pressure;Samples;Min_cycle;Max_cycle;Signal;HPM_P1;HPM_P2
2024/01/07 00:00:05;;;;;;;32.13;28.73;;;5.20;99.90;;;;;;4878329;29;20278;-76
2024/01/07 00:02:32;;;;;;;31.70;28.13;;;5.30;99.90;;;;;;4878718;29;20207;-75
2024/01/07 00:05:01;;;;;;;30.63;27.43;;;5.20;99.90;;;;;;4877424;29;20227;-76
2024/01/07 00:07:28;;;;;;;31.17;28.00;;;5.30;99.90;;;;;;4878624;29;20362;-75
2024/01/07 00:09:55;;;;;;;28.97;26.07;;;5.30;99.90;;;;;;4877023;29;20218;-76
2024/01/07 00:12:22;;;;;;;31.53;28.33;;;5.30;99.90;;;;;;4877719;29;20238;-76
2024/01/07 00:14:49;;;;;;;30.43;27.30;;;5.30;99.90;;;;;;4876899;29;20244;-76
2024/01/07 00:17:15;;;;;;;29.17;26.17;;;5.20;99.90;;;;;;4878246;29;20257;-76
2024/01/07 00:19:42;;;;;;;30.20;27.07;;;5.30;99.90;;;;;;4883737;29;20238;-75
2024/01/07 00:22:10;;;;;;;29.53;26.73;;;5.30;99.90;;;;;;4877143;29;20338;-75
2024/01/07 00:24:37;;;;;;;29.03;26.17;;;5.20;99.90;;;;;;4878145;29;20853;-75
2024/01/07 00:27:05;;;;;;;30.80;27.60;;;5.30;99.90;;;;;;4878336;29;20207;-76
2024/01/07 00:29:34;;;;;;;31.27;28.00;;;5.30;99.90;;;;;;4870926;29;20210;-76
2024/01/07 00:32:01;;;;;;;29.77;26.90;;;5.20;99.90;;;;;;4876768;29;20223;-75
2024/01/07 00:34:28;;;;;;;32.17;28.60;;;5.20;99.90;;;;;;4885923;29;20233;-75
2024/01/07 00:36:54;;;;;;;29.10;26.30;;;5.20;99.90;;;;;;4884810;29;20203;-76
2024/01/07 00:39:23;;;;;;;27.90;24.90;;;5.20;99.90;;;;;;4875825;29;20205;-76
2024/01/07 00:41:50;;;;;;;29.13;26.23;;;5.20;99.90;;;;;;4883522;29;20611;-76
2024/01/07 00:44:16;;;;;;;29.97;26.97;;;5.20;99.90;;;;;;4881150;29;20246;-76
2024/01/07 00:46:43;;;;;;;29.87;26.77;;;5.20;99.90;;;;;;4877733;29;20206;-76
2024/01/07 00:49:10;;;;;;;29.33;26.37;;;5.20;99.90;;;;;;4876741;29;20229;-75
2024/01/07 00:51:37;;;;;;;30.03;26.83;;;5.20;99.90;;;;;;4878237;29;20309;-76
2024/01/07 00:54:04;;;;;;;33.30;29.37;;;5.20;99.90;;;;;;4884194;29;20227;-75
2024/01/07 00:56:32;;;;;;;31.07;27.77;;;5.20;99.90;;;;;;4876690;29;20208;-76
2024/01/07 00:58:59;;;;;;;31.50;28.30;;;5.20;99.90;;;;;;4878065;29;20207;-75
2024/01/07 01:01:25;;;;;;;30.70;27.50;;;5.10;99.90;;;;;;4877721;29;20675;-75
2024/01/07 01:03:52;;;;;;;31.30;28.10;;;5.10;99.90;;;;;;4876657;29;20730;-75
2024/01/07 01:06:19;;;;;;;30.83;27.73;;;5.10;99.90;;;;;;4876561;29;20200;-76
2024/01/07 01:08:46;;;;;;;30.83;27.63;;;5.20;99.90;;;;;;4878113;29;20288;-76
2024/01/07 01:11:13;;;;;;;31.83;28.53;;;5.20;99.90;;;;;;4877567;29;20265;-76
2024/01/07 01:13:41;;;;;;;29.80;26.70;;;5.20;99.90;;;;;;4877491;29;20239;-76
2024/01/07 01:16:07;;;;;;;30.60;27.30;;;5.20;99.90;;;;;;4883818;29;20210;-76
2024/01/07 01:18:34;;;;;;;31.70;28.47;;;5.20;99.90;;;;;;4876695;29;20220;-76
2024/01/07 01:21:01;;;;;;;32.03;28.73;;;5.20;99.90;;;;;;4876794;29;20663;-75
2024/01/07 01:23:28;;;;;;;31.13;27.80;;;5.20;99.90;;;;;;4876213;29;20717;-76
2024/01/07 01:25:55;;;;;;;30.20;27.13;;;5.30;99.90;;;;;;4876721;29;20211;-76
2024/01/07 01:28:21;;;;;;;29.87;26.77;;;5.30;99.90;;;;;;4881153;29;20230;-76
2024/01/07 01:30:49;;;;;;;30.93;27.80;;;5.30;99.90;;;;;;4876470;29;20268;-76
2024/01/07 01:33:16;;;;;;;28.70;25.90;;;5.30;99.90;;;;;;4876034;29;20313;-76
2024/01/07 01:35:43;;;;;;;31.63;28.33;;;5.30;99.90;;;;;;4877649;29;20204;-76
2024/01/07 01:38:11;;;;;;;31.60;28.40;;;5.30;99.90;;;;;;4876644;29;20258;-76
2024/01/07 01:40:38;;;;;;;31.33;28.13;;;5.30;99.90;;;;;;4876273;29;20262;-76
2024/01/07 01:43:05;;;;;;;30.07;27.17;;;5.30;99.90;;;;;;4876366;29;20279;-76
2024/01/07 01:45:31;;;;;;;29.43;26.53;;;5.30;99.90;;;;;;4877301;29;20207;-76
2024/01/07 01:48:00;;;;;;;30.90;27.50;;;5.30;99.90;;;;;;4882504;29;20271;-75
2024/01/07 01:50:27;;;;;;;31.40;28.20;;;5.20;99.90;;;;;;4879055;29;20234;-76
2024/01/07 01:52:56;;;;;;;30.97;27.77;;;5.20;99.90;;;;;;4886394;29;20210;-75
2024/01/07 01:55:23;;;;;;;31.87;28.47;;;5.20;99.90;;;;;;4882728;29;20205;-76
2024/01/07 01:57:50;;;;;;;32.63;29.07;;;5.20;99.90;;;;;;4888422;29;20224;-75
2024/01/07 02:00:17;;;;;;;30.33;27.33;;;5.20;99.90;;;;;;4879695;29;20564;-76
2024/01/07 02:02:44;;;;;;;30.90;27.70;;;5.20;99.90;;;;;;4882733;29;20223;-76
2024/01/07 02:05:13;;;;;;;30.97;27.77;;;5.20;99.90;;;;;;4885794;29;20211;-75
2024/01/07 02:07:40;;;;;;;29.30;26.27;;;5.20;99.90;;;;;;4882176;29;20218;-75
2024/01/07 02:10:08;;;;;;;29.63;26.57;;;5.20;99.90;;;;;;4879483;29;20216;-76
2024/01/07 02:12:35;;;;;;;30.90;27.70;;;5.20;99.90;;;;;;4878769;29;20250;-76
2024/01/07 02:15:01;;;;;;;32.43;29.13;;;5.30;99.90;;;;;;4879038;29;20246;-76
2024/01/07 02:17:28;;;;;;;31.47;28.13;;;5.20;99.90;;;;;;4881111;29;20205;-76
2024/01/07 02:19:55;;;;;;;30.07;26.97;;;5.20;99.90;;;;;;4884369;29;20633;-76
2024/01/07 02:22:23;;;;;;;30.87;27.77;;;5.20;99.90;;;;;;4878944;29;20211;-75
2024/01/07 02:24:51;;;;;;;29.83;26.83;;;5.10;99.90;;;;;;4883211;29;20222;-76
2024/01/07 02:27:18;;;;;;;30.90;27.57;;;5.10;99.90;;;;;;4879092;29;20195;-76
2024/01/07 02:29:45;;;;;;;31.53;28.23;;;5.20;99.90;;;;;;4880326;29;20210;-76
2024/01/07 02:32:12;;;;;;;31.57;28.00;;;5.10;99.90;;;;;;4879998;29;20327;-76
2024/01/07 02:34:38;;;;;;;30.57;27.27;;;5.10;99.90;;;;;;4878954;29;20243;-76
2024/01/07 02:37:05;;;;;;;30.93;27.70;;;5.20;99.90;;;;;;4880075;29;20211;-76
2024/01/07 02:39:32;;;;;;;32.00;28.47;;;5.20;99.90;;;;;;4878885;29;20262;-76
2024/01/07 02:42:00;;;;;;;31.30;28.10;;;5.20;99.90;;;;;;4878753;29;20215;-75
2024/01/07 02:44:27;;;;;;;30.23;27.10;;;5.20;99.90;;;;;;4878702;29;20228;-76
2024/01/07 02:46:53;;;;;;;33.07;29.60;;;5.20;99.90;;;;;;4878758;29;20282;-75
2024/01/07 02:49:20;;;;;;;30.13;27.03;;;5.10;99.90;;;;;;4877336;29;20206;-75
2024/01/07 02:51:49;;;;;;;31.63;28.37;;;5.20;99.90;;;;;;4878483;29;20274;-76
2024/01/07 02:54:16;;;;;;;31.07;27.77;;;5.20;99.90;;;;;;4879805;29;20222;-76
2024/01/07 02:56:43;;;;;;;30.13;27.00;;;5.20;99.90;;;;;;4870906;29;20212;-76
2024/01/07 02:59:11;;;;;;;29.83;26.83;;;5.20;99.90;;;;;;4879797;29;20262;-76
2024/01/07 03:01:40;;;;;;;30.90;27.40;;;5.20;99.90;;;;;;4877424;29;20225;-76
2024/01/07 03:04:07;;;;;;;29.97;26.97;;;5.10;99.90;;;;;;4884051;29;20795;-75
2024/01/07 03:06:33;;;;;;;29.47;26.43;;;5.20;99.90;;;;;;4879648;29;20215;-76
2024/01/07 03:09:00;;;;;;;30.73;27.50;;;5.10;99.90;;;;;;4879627;29;20269;-76
2024/01/07 03:11:27;;;;;;;30.73;27.47;;;5.10;99.90;;;;;;4880326;29;20257;-75
2024/01/07 03:13:53;;;;;;;31.57;28.20;;;5.10;99.90;;;;;;4878787;29;20262;-76
2024/01/07 03:16:22;;;;;;;30.40;27.20;;;5.00;99.90;;;;;;4879286;29;20205;-76
2024/01/07 03:18:49;;;;;;;27.70;25.00;;;5.10;99.90;;;;;;4878271;29;20293;-76
2024/01/07 03:21:20;;;;;;;28.53;25.73;;;5.10;99.90;;;;;;4878327;29;20204;-76
2024/01/07 03:23:47;;;;;;;27.30;24.57;;;5.10;99.90;;;;;;4879200;29;20324;-75
2024/01/07 03:26:15;;;;;;;29.33;26.43;;;5.10;99.90;;;;;;4879468;29;20411;-75
2024/01/07 03:28:41;;;;;;;28.37;25.50;;;5.10;99.90;;;;;;4879292;29;20210;-75
2024/01/07 03:31:10;;;;;;;27.07;24.47;;;5.00;99.90;;;;;;4877987;29;20228;-76
2024/01/07 03:33:39;;;;;;;30.03;26.93;;;5.10;99.90;;;;;;4877720;29;20245;-75
2024/01/07 03:36:08;;;;;;;28.77;25.90;;;5.10;99.90;;;;;;4878847;29;20282;-76
2024/01/07 03:38:35;;;;;;;28.73;25.83;;;5.10;99.90;;;;;;4877883;29;20211;-76
2024/01/07 03:41:02;;;;;;;30.03;27.03;;;5.10;99.90;;;;;;4877860;29;20665;-75
2024/01/07 03:43:29;;;;;;;29.37;26.40;;;5.00;99.90;;;;;;4885171;29;20226;-76
2024/01/07 03:45:56;;;;;;;28.57;25.77;;;5.00;99.90;;;;;;4878968;29;20211;-76
2024/01/07 03:48:22;;;;;;;29.70;26.77;;;5.00;99.90;;;;;;4879135;29;20230;-75
2024/01/07 03:50:51;;;;;;;30.17;26.97;;;5.00;99.90;;;;;;4886079;29;20199;-75
2024/01/07 03:53:18;;;;;;;29.17;26.27;;;4.90;99.90;;;;;;4878841;29;20265;-76
2024/01/07 03:55:44;;;;;;;28.23;25.23;;;5.00;99.90;;;;;;4880664;29;20275;-75
2024/01/07 03:58:11;;;;;;;28.30;25.40;;;5.00;99.90;;;;;;4878624;29;20198;-76
2024/01/07 04:00:38;;;;;;;30.43;27.27;;;5.00;99.90;;;;;;4878595;29;20687;-78
2024/01/07 04:03:05;;;;;;;29.17;26.27;;;5.00;99.90;;;;;;4878766;29;20276;-78
2024/01/07 04:05:33;;;;;;;27.07;24.30;;;5.00;99.90;;;;;;4877312;29;20226;-78
2024/01/07 04:08:01;;;;;;;27.50;24.87;;;5.00;99.90;;;;;;4881971;29;20196;-76
2024/01/07 04:10:28;;;;;;;28.57;25.80;;;5.00;99.90;;;;;;4883043;29;20263;-76
2024/01/07 04:12:55;;;;;;;26.97;24.30;;;5.00;99.90;;;;;;4880099;29;20234;-76
2024/01/07 04:15:21;;;;;;;28.97;25.93;;;5.10;99.90;;;;;;4878942;29;20218;-76
2024/01/07 04:17:48;;;;;;;27.63;24.73;;;5.00;99.90;;;;;;4882280;29;20308;-76
2024/01/07 04:20:15;;;;;;;28.07;25.17;;;5.00;99.90;;;;;;4878932;29;20266;-76
2024/01/07 04:22:42;;;;;;;30.67;27.37;;;4.90;99.90;;;;;;4877797;29;20270;-77
2024/01/07 04:25:21;;;;;;;27.60;24.80;;;4.90;99.90;;;;;;4878682;29;20198;-83
2024/01/07 04:27:48;;;;;;;27.73;24.93;;;4.90;99.90;;;;;;4872212;29;20202;-76
2024/01/07 04:30:15;;;;;;;29.07;26.00;;;4.90;99.90;;;;;;4870257;29;20261;-76
2024/01/07 04:32:42;;;;;;;29.40;26.47;;;4.90;99.90;;;;;;4876288;29;20225;-75
2024/01/07 04:35:08;;;;;;;28.10;25.20;;;4.90;99.90;;;;;;4878079;29;20228;-75
2024/01/07 04:37:36;;;;;;;27.73;25.00;;;4.80;99.90;;;;;;4884429;29;20214;-75
2024/01/07 04:40:03;;;;;;;28.53;25.83;;;4.80;99.90;;;;;;4882196;29;20226;-75
2024/01/07 04:42:31;;;;;;;32.40;28.87;;;4.80;99.90;;;;;;4877267;29;20205;-75
2024/01/07 04:44:58;;;;;;;28.83;26.03;;;4.80;99.90;;;;;;4870600;29;20272;-75
2024/01/07 04:47:27;;;;;;;29.03;25.93;;;4.80;99.90;;;;;;4872045;29;20202;-79
2024/01/07 04:49:54;;;;;;;27.70;24.93;;;4.80;99.90;;;;;;4873782;29;20312;-78
2024/01/07 04:52:22;;;;;;;26.73;24.23;;;4.80;99.90;;;;;;4881516;29;20278;-78
2024/01/07 04:54:49;;;;;;;27.87;25.17;;;4.80;99.90;;;;;;4877371;29;20320;-79
2024/01/07 04:57:16;;;;;;;29.00;26.13;;;4.80;99.90;;;;;;4876989;29;20209;-78
2024/01/07 04:59:44;;;;;;;29.53;26.63;;;4.80;99.90;;;;;;4878272;29;20256;-78
2024/01/07 05:02:11;;;;;;;27.27;24.77;;;4.80;99.90;;;;;;4878522;29;20578;-78
2024/01/07 05:04:38;;;;;;;28.37;25.77;;;4.80;99.90;;;;;;4876734;29;20238;-78
2024/01/07 05:07:05;;;;;;;27.07;24.37;;;4.80;99.90;;;;;;4876858;29;20267;-82
2024/01/07 05:09:33;;;;;;;28.90;26.20;;;4.80;99.90;;;;;;4877749;29;20627;-74
2024/01/07 05:12:00;;;;;;;28.50;25.80;;;4.70;99.90;;;;;;4879094;29;20278;-77
2024/01/07 05:14:27;;;;;;;27.80;25.13;;;4.80;99.90;;;;;;4870221;29;20230;-77
2024/01/07 05:16:56;;;;;;;27.87;25.13;;;4.80;99.90;;;;;;4873325;29;20211;-76
2024/01/07 05:19:22;;;;;;;28.43;25.73;;;4.80;99.90;;;;;;4876731;29;20198;-75
2024/01/07 05:21:49;;;;;;;29.13;26.07;;;4.70;99.90;;;;;;4879098;29;20681;-75
2024/01/07 05:24:16;;;;;;;28.07;25.27;;;4.70;99.90;;;;;;4877694;29;20228;-75
2024/01/07 05:26:44;;;;;;;27.23;24.73;;;4.70;99.90;;;;;;4881398;29;20241;-76
2024/01/07 05:29:11;;;;;;;26.90;24.50;;;4.70;99.90;;;;;;4879594;29;20223;-75
2024/01/07 05:31:38;;;;;;;27.40;24.73;;;4.70;99.90;;;;;;4881005;29;20274;-76
2024/01/07 05:34:06;;;;;;;25.40;23.10;;;4.70;99.90;;;;;;4880033;29;20234;-76
2024/01/07 05:36:33;;;;;;;25.23;22.80;;;4.60;99.90;;;;;;4882958;29;20702;-75
2024/01/07 05:39:00;;;;;;;25.47;23.17;;;4.60;99.90;;;;;;4889066;29;20268;-76
2024/01/07 05:41:27;;;;;;;25.10;22.63;;;4.60;99.90;;;;;;4887823;29;20199;-75
2024/01/07 05:43:54;;;;;;;25.70;23.00;;;4.50;99.90;;;;;;4880556;29;20252;-75
2024/01/07 05:46:21;;;;;;;25.33;23.13;;;4.50;99.90;;;;;;4887327;29;20624;-75
2024/01/07 05:48:49;;;;;;;25.23;22.73;;;4.50;99.90;;;;;;4881127;29;20266;-76
2024/01/07 05:51:17;;;;;;;26.07;23.43;;;4.50;99.90;;;;;;4879852;29;20236;-76
2024/01/07 05:53:45;;;;;;;23.73;21.63;;;4.50;99.90;;;;;;4880564;29;20658;-76
2024/01/07 05:56:12;;;;;;;25.63;23.30;;;4.50;99.90;;;;;;4881700;29;20210;-76
2024/01/07 05:58:39;;;;;;;26.27;23.90;;;4.50;99.90;;;;;;4879121;29;20214;-76
2024/01/07 06:01:07;;;;;;;26.90;24.20;;;4.50;99.90;;;;;;4881049;29;20283;-75
2024/01/07 06:03:34;;;;;;;26.57;24.10;;;4.50;99.90;;;;;;4880730;29;20709;-76
2024/01/07 06:06:01;;;;;;;25.50;23.20;;;4.40;99.90;;;;;;4879492;29;20232;-75
2024/01/07 06:08:29;;;;;;;26.30;23.90;;;4.40;99.90;;;;;;4886813;29;20746;-75
2024/01/07 06:10:56;;;;;;;25.83;23.63;;;4.40;99.90;;;;;;4880300;29;20201;-76
2024/01/07 06:13:23;;;;;;;26.40;23.83;;;4.50;99.90;;;;;;4879964;29;20229;-76
2024/01/07 06:15:50;;;;;;;28.30;25.57;;;4.50;99.90;;;;;;4878908;29;20216;-76
2024/01/07 06:18:17;;;;;;;27.20;24.47;;;4.40;99.90;;;;;;4883163;29;20284;-75
2024/01/07 06:20:44;;;;;;;27.03;24.63;;;4.40;99.90;;;;;;4886928;29;20232;-76
2024/01/07 06:23:10;;;;;;;26.57;24.27;;;4.40;99.90;;;;;;4888172;29;20225;-75
2024/01/07 06:25:39;;;;;;;24.87;22.73;;;4.40;99.90;;;;;;4880408;29;20200;-75
2024/01/07 06:28:06;;;;;;;27.60;25.13;;;4.40;99.90;;;;;;4872986;29;20189;-76
2024/01/07 06:30:33;;;;;;;27.00;24.70;;;4.40;99.90;;;;;;4880562;29;20209;-78
2024/01/07 06:33:00;;;;;;;25.50;23.30;;;4.40;99.90;;;;;;4887131;29;20229;-77
2024/01/07 06:35:27;;;;;;;25.27;22.97;;;4.30;99.90;;;;;;4878840;29;20740;-77
2024/01/07 06:37:54;;;;;;;27.30;24.90;;;4.30;99.90;;;;;;4875209;29;20583;-77
2024/01/07 06:40:20;;;;;;;25.03;22.93;;;4.30;99.90;;;;;;4872782;29;20271;-78
2024/01/07 06:42:49;;;;;;;26.30;24.10;;;4.30;99.90;;;;;;4876976;29;20249;-78
2024/01/07 06:45:16;;;;;;;25.93;23.63;;;4.30;99.90;;;;;;4885673;29;20201;-81
2024/01/07 06:47:43;;;;;;;26.50;24.03;;;4.30;99.90;;;;;;4883520;29;20906;-77
2024/01/07 06:50:11;;;;;;;26.37;23.97;;;4.30;99.90;;;;;;4880275;29;20344;-77
2024/01/07 06:52:37;;;;;;;25.40;23.07;;;4.30;99.90;;;;;;4879328;29;20657;-78
2024/01/07 06:55:04;;;;;;;25.63;23.53;;;4.30;99.90;;;;;;4879650;29;20280;-77
2024/01/07 06:57:31;;;;;;;25.10;22.80;;;4.30;99.90;;;;;;4880208;29;20202;-78
2024/01/07 06:59:59;;;;;;;25.47;23.27;;;4.30;99.90;;;;;;4880099;29;20672;-77
2024/01/07 07:02:26;;;;;;;26.33;24.13;;;4.30;99.90;;;;;;4877794;29;20225;-81
2024/01/07 07:04:53;;;;;;;28.23;25.73;;;4.30;99.90;;;;;;4884684;29;20256;-77
2024/01/07 07:07:20;;;;;;;27.80;25.37;;;4.20;99.90;;;;;;4879413;29;20261;-77
2024/01/07 07:09:47;;;;;;;27.37;25.03;;;4.20;99.90;;;;;;4880080;29;20202;-78
2024/01/07 07:12:14;;;;;;;27.43;24.93;;;4.20;99.90;;;;;;4880270;29;20295;-78
2024/01/07 07:14:40;;;;;;;27.27;24.77;;;4.20;99.90;;;;;;4878658;29;20245;-78
2024/01/07 07:17:09;;;;;;;25.87;23.63;;;4.20;99.90;;;;;;4883028;29;20631;-78
2024/01/07 07:19:35;;;;;;;28.03;25.30;;;4.20;99.90;;;;;;4885391;29;20224;-78
2024/01/07 07:22:02;;;;;;;26.13;23.67;;;4.30;99.90;;;;;;4879194;29;20210;-77
2024/01/07 07:24:29;;;;;;;25.80;23.70;;;4.30;99.90;;;;;;4882759;29;20645;-78
2024/01/07 07:26:56;;;;;;;26.93;24.63;;;4.30;99.90;;;;;;4878535;29;20216;-78
2024/01/07 07:29:22;;;;;;;26.77;24.37;;;4.20;99.90;;;;;;4879716;29;20241;-82
2024/01/07 07:31:49;;;;;;;28.00;25.23;;;4.20;99.90;;;;;;4877777;29;20706;-82
2024/01/07 07:34:18;;;;;;;27.90;25.30;;;4.20;99.90;;;;;;4875769;29;20234;-81
2024/01/07 07:36:47;;;;;;;27.90;25.37;;;4.30;99.90;;;;;;4883329;29;20201;-80
2024/01/07 07:39:36;;;;;;;;;;;;;;;;;;;;;
2024/01/07 07:42:03;;;;;;;27.90;25.30;;;4.30;99.90;;;;;;4876892;29;20227;-76
2024/01/07 07:44:30;;;;;;;27.83;25.33;;;4.20;99.90;;;;;;4890569;29;20225;-79
2024/01/07 07:46:57;;;;;;;28.27;25.77;;;4.20;99.90;;;;;;4878702;29;20617;-78
2024/01/07 07:49:25;;;;;;;27.13;24.60;;;4.20;99.90;;;;;;4879387;29;20264;-76
2024/01/07 07:51:52;;;;;;;29.13;26.67;;;4.30;99.90;;;;;;4873623;29;20520;-76
2024/01/07 07:54:19;;;;;;;27.00;24.60;;;4.30;99.90;;;;;;4877852;29;20232;-76
2024/01/07 07:56:45;;;;;;;27.00;24.70;;;4.30;99.90;;;;;;4874412;29;20242;-75
2024/01/07 07:59:12;;;;;;;27.23;24.93;;;4.30;99.90;;;;;;4868014;29;20253;-75
2024/01/07 08:01:39;;;;;;;28.03;25.40;;;4.30;99.90;;;;;;4876905;29;20559;-76
2024/01/07 08:04:07;;;;;;;27.27;24.67;;;4.40;99.90;;;;;;4885643;29;20218;-75
2024/01/07 08:06:36;;;;;;;26.33;24.03;;;4.40;99.90;;;;;;4872911;29;20195;-76
2024/01/07 08:09:02;;;;;;;25.50;23.40;;;4.40;99.90;;;;;;4878238;29;20214;-76
2024/01/07 08:11:30;;;;;;;29.83;26.63;;;4.40;99.90;;;;;;4878293;29;20866;-75
2024/01/07 08:13:57;;;;;;;29.00;26.17;;;4.40;99.90;;;;;;4869957;29;20278;-75
2024/01/07 08:16:25;;;;;;;28.27;25.57;;;4.40;99.90;;;;;;4881499;29;20211;-75
2024/01/07 08:18:52;;;;;;;29.00;26.23;;;4.40;99.90;;;;;;4874777;29;20194;-76
2024/01/07 08:21:20;;;;;;;30.60;27.70;;;4.40;99.90;;;;;;4885190;29;20196;-75
2024/01/07 08:23:48;;;;;;;30.93;27.93;;;4.50;99.90;;;;;;4881956;29;20228;-75
2024/01/07 08:26:19;;;;;;;28.63;26.13;;;4.50;99.90;;;;;;4878057;29;20210;-76
2024/01/07 08:28:46;;;;;;;29.47;26.60;;;4.40;99.90;;;;;;4884932;29;20277;-76
2024/01/07 08:31:12;;;;;;;29.00;26.40;;;4.50;99.90;;;;;;4878185;29;20305;-76
2024/01/07 08:33:39;;;;;;;29.23;26.57;;;4.40;99.90;;;;;;4877120;29;20234;-75
2024/01/07 08:36:07;;;;;;;29.60;26.90;;;4.40;99.90;;;;;;4878986;29;20201;-76
2024/01/07 08:38:33;;;;;;;29.57;26.53;;;4.40;99.90;;;;;;4879733;29;20226;-76
2024/01/07 08:41:02;;;;;;;28.37;25.87;;;4.40;99.90;;;;;;4878791;29;20754;-76
2024/01/07 08:43:28;;;;;;;28.70;26.00;;;4.40;99.90;;;;;;4885124;29;20217;-75
2024/01/07 08:45:55;;;;;;;28.23;25.63;;;4.30;99.90;;;;;;4884612;29;20256;-76
2024/01/07 08:48:22;;;;;;;29.40;26.50;;;4.30;99.90;;;;;;4882426;29;20210;-76
2024/01/07 08:50:49;;;;;;;28.87;26.30;;;4.40;99.90;;;;;;4885777;29;20201;-76
2024/01/07 08:53:16;;;;;;;28.97;26.37;;;4.30;99.90;;;;;;4879028;29;20225;-76
2024/01/07 08:55:43;;;;;;;27.97;25.37;;;4.20;99.90;;;;;;4877497;29;20217;-76
2024/01/07 08:58:11;;;;;;;27.23;24.63;;;4.20;99.90;;;;;;4878625;29;20212;-76
2024/01/07 09:00:38;;;;;;;24.40;22.23;;;4.20;99.90;;;;;;4881282;29;20220;-76
2024/01/07 09:03:06;;;;;;;21.73;19.80;;;4.20;99.90;;;;;;4883457;29;20234;-76
2024/01/07 09:05:33;;;;;;;21.77;19.73;;;4.10;99.90;;;;;;4881219;29;20220;-79
2024/01/07 09:08:00;;;;;;;22.80;20.50;;;4.00;99.90;;;;;;4885475;29;20237;-79
2024/01/07 09:10:27;;;;;;;22.10;20.00;;;4.00;99.90;;;;;;4884772;29;20271;-79
2024/01/07 09:12:54;;;;;;;20.53;19.03;;;4.00;99.90;;;;;;4883936;29;20225;-79
2024/01/07 09:15:23;;;;;;;21.80;19.93;;;4.10;99.90;;;;;;4882446;29;20236;-80
2024/01/07 09:17:49;;;;;;;20.63;18.93;;;4.10;99.90;;;;;;4887282;29;20679;-76
2024/01/07 09:20:16;;;;;;;19.97;18.37;;;4.00;99.90;;;;;;4881215;29;20202;-76
2024/01/07 09:22:44;;;;;;;20.10;18.47;;;4.00;99.90;;;;;;4881029;29;20261;-76
2024/01/07 09:25:10;;;;;;;21.07;19.17;;;3.90;99.90;;;;;;4882402;29;20206;-78
2024/01/07 09:27:37;;;;;;;20.60;18.83;;;3.90;99.90;;;;;;4887115;29;20201;-78
2024/01/07 09:30:05;;;;;;;20.77;18.97;;;4.00;99.90;;;;;;4881409;29;20209;-75
2024/01/07 09:32:33;;;;;;;20.80;19.00;;;4.00;99.90;;;;;;4881388;29;20657;-76
2024/01/07 09:35:00;;;;;;;20.17;18.57;;;4.00;99.90;;;;;;4890495;29;20236;-76
2024/01/07 09:37:27;;;;;;;19.73;17.90;;;4.00;99.90;;;;;;4880764;29;20205;-76
2024/01/07 09:39:54;;;;;;;19.97;18.37;;;4.00;99.90;;;;;;4885930;29;20224;-76
2024/01/07 09:42:20;;;;;;;19.43;17.80;;;4.10;99.90;;;;;;4880549;29;20205;-78
2024/01/07 09:44:48;;;;;;;18.70;17.30;;;4.00;99.90;;;;;;4880639;29;20225;-77
2024/01/07 09:47:16;;;;;;;18.97;17.47;;;4.00;99.90;;;;;;4889660;29;20629;-76
2024/01/07 09:49:45;;;;;;;18.83;17.27;;;4.10;99.90;;;;;;4879498;29;20210;-76
2024/01/07 09:52:13;;;;;;;19.30;17.73;;;4.10;99.90;;;;;;4880695;29;20214;-78
2024/01/07 09:54:41;;;;;;;18.10;16.50;;;4.10;99.90;;;;;;4880711;29;20277;-77
2024/01/07 09:57:09;;;;;;;18.83;17.30;;;4.10;99.90;;;;;;4880912;29;20202;-77
2024/01/07 09:59:37;;;;;;;18.97;17.40;;;4.10;99.90;;;;;;4879617;29;20209;-77
2024/01/07 10:02:04;;;;;;;18.33;16.93;;;4.10;99.90;;;;;;4876422;29;20202;-76
2024/01/07 10:04:31;;;;;;;17.77;16.37;;;4.10;99.90;;;;;;4887013;29;20221;-76
2024/01/07 10:06:59;;;;;;;18.27;16.87;;;4.10;99.90;;;;;;4879717;29;20210;-76
2024/01/07 10:09:30;;;;;;;18.37;16.97;;;4.10;99.90;;;;;;4876638;29;20690;-76
2024/01/07 10:11:57;;;;;;;17.47;16.00;;;4.10;99.90;;;;;;4868839;29;20214;-76
2024/01/07 10:14:24;;;;;;;17.97;16.47;;;4.10;99.90;;;;;;4872510;29;20256;-76
2024/01/07 10:16:51;;;;;;;18.27;16.77;;;4.10;99.90;;;;;;4883985;29;20625;-76
2024/01/07 10:19:22;;;;;;;17.63;16.33;;;4.10;99.90;;;;;;4873640;29;20757;-76
2024/01/07 10:22:01;;;;;;;17.70;16.37;;;4.10;99.90;;;;;;4881052;29;20212;-77
2024/01/07 10:24:36;;;;;;;16.60;15.40;;;4.00;99.90;;;;;;4884368;29;20217;-77
2024/01/07 10:27:03;;;;;;;16.53;15.33;;;4.00;99.90;;;;;;4879626;29;20235;-76
2024/01/07 10:29:30;;;;;;;17.50;16.10;;;4.00;99.90;;;;;;4879553;29;20731;-76
2024/01/07 10:31:58;;;;;;;17.37;16.07;;;4.00;99.90;;;;;;4878648;29;20664;-78
2024/01/07 10:34:25;;;;;;;17.33;15.93;;;4.00;99.90;;;;;;4884638;29;20768;-76
2024/01/07 10:36:53;;;;;;;17.53;16.20;;;4.00;99.90;;;;;;4879249;29;20678;-76
2024/01/07 10:39:22;;;;;;;16.93;15.50;;;3.90;99.90;;;;;;4879425;29;20210;-77
2024/01/07 10:41:52;;;;;;;17.93;16.40;;;3.80;99.90;;;;;;4878266;29;20210;-76
2024/01/07 10:44:19;;;;;;;18.33;16.93;;;3.70;99.90;;;;;;4877484;29;20748;-77
2024/01/07 10:46:48;;;;;;;18.00;16.37;;;3.60;99.90;;;;;;4879881;29;20589;-78
2024/01/07 10:49:21;;;;;;;17.47;16.07;;;3.60;99.90;;;;;;4879295;29;20209;-78
2024/01/07 10:51:57;;;;;;;18.80;17.20;;;3.50;99.90;;;;;;4880528;29;20297;-77
2024/01/07 10:54:29;;;;;;;17.97;16.53;;;3.50;99.90;;;;;;4872775;29;20236;-77
2024/01/07 10:57:18;;;;;;;17.87;16.40;;;3.40;99.90;;;;;;4876747;29;20202;-77
2024/01/07 10:59:46;;;;;;;18.27;16.77;;;3.40;99.90;;;;;;4880619;29;20206;-77
2024/01/07 11:02:14;;;;;;;17.63;16.30;;;3.40;99.90;;;;;;4890133;29;20204;-77
2024/01/07 11:04:48;;;;;;;17.50;16.13;;;3.40;99.90;;;;;;4879367;29;20244;-77
2024/01/07 11:07:23;;;;;;;19.33;17.53;;;3.40;99.90;;;;;;4879353;29;20261;-77
2024/01/07 11:10:06;;;;;;;19.03;17.43;;;3.30;99.90;;;;;;4876791;29;20269;-78
2024/01/07 11:12:34;;;;;;;19.40;17.67;;;3.30;99.90;;;;;;4876101;29;20200;-78
2024/01/07 11:15:00;;;;;;;19.87;18.17;;;3.30;99.90;;;;;;4876711;29;20290;-77
2024/01/07 11:17:46;;;;;;;18.83;17.33;;;3.20;99.90;;;;;;4891220;29;20262;-78
2024/01/07 11:20:20;;;;;;;20.33;18.53;;;3.10;99.90;;;;;;4876958;29;20637;-78
2024/01/07 11:22:47;;;;;;;19.20;17.70;;;3.20;99.90;;;;;;4877941;29;20224;-77
2024/01/07 11:25:32;;;;;;;19.53;17.93;;;3.20;99.90;;;;;;4884720;29;20193;-77
2024/01/07 11:28:01;;;;;;;19.53;17.83;;;3.20;99.90;;;;;;4876019;29;20201;-77
2024/01/07 11:30:29;;;;;;;18.70;17.20;;;3.20;99.90;;;;;;4877533;29;20205;-78
2024/01/07 11:32:59;;;;;;;19.77;18.00;;;3.20;99.90;;;;;;4878586;29;20205;-78
2024/01/07 11:36:03;;;;;;;20.83;18.93;;;3.20;99.90;;;;;;4880521;29;20230;-77
2024/01/07 11:38:30;;;;;;;18.93;17.33;;;3.10;99.90;;;;;;4878993;29;20292;-77
2024/01/07 11:40:59;;;;;;;19.90;18.17;;;3.20;99.90;;;;;;4880448;29;20205;-77
2024/01/07 11:43:26;;;;;;;19.60;17.90;;;3.20;99.90;;;;;;4877951;29;20213;-80
2024/01/07 11:45:54;;;;;;;20.17;18.37;;;3.30;99.90;;;;;;4877125;29;20205;-76
2024/01/07 11:48:21;;;;;;;19.80;18.10;;;3.20;99.90;;;;;;4878130;29;20580;-76
2024/01/07 11:50:48;;;;;;;19.70;17.83;;;3.20;99.90;;;;;;4878209;29;20257;-76
2024/01/07 11:53:14;;;;;;;19.37;17.83;;;3.20;99.90;;;;;;4878143;29;20240;-76
2024/01/07 11:55:41;;;;;;;19.40;17.87;;;3.20;99.90;;;;;;4887902;29;20229;-76
2024/01/07 11:58:09;;;;;;;19.67;18.17;;;3.20;99.90;;;;;;4878015;29;20205;-76
2024/01/07 12:00:36;;;;;;;20.97;19.27;;;3.20;99.90;;;;;;4877941;29;20220;-77
2024/01/07 12:03:04;;;;;;;19.87;18.17;;;3.20;99.90;;;;;;4878937;29;20221;-77
2024/01/07 12:05:31;;;;;;;18.73;17.17;;;3.30;99.90;;;;;;4876078;29;20682;-79
2024/01/07 12:07:58;;;;;;;18.97;17.37;;;3.30;99.90;;;;;;4886815;29;20261;-76
2024/01/07 12:10:25;;;;;;;19.77;18.17;;;3.30;99.90;;;;;;4877214;29;20677;-76
2024/01/07 12:12:52;;;;;;;18.13;16.73;;;3.30;99.90;;;;;;4877055;29;20205;-76
2024/01/07 12:15:23;;;;;;;18.33;16.93;;;3.20;99.90;;;;;;4878172;29;20712;-76
2024/01/07 12:17:57;;;;;;;18.80;17.20;;;3.30;99.90;;;;;;4877296;29;20209;-76
2024/01/07 12:20:25;;;;;;;18.70;17.20;;;3.20;99.90;;;;;;4879017;29;20204;-78
2024/01/07 12:22:51;;;;;;;18.37;16.97;;;3.30;99.90;;;;;;4877208;29;20209;-80
2024/01/07 12:25:23;;;;;;;18.57;16.93;;;3.30;99.90;;;;;;4877191;29;20232;-78
2024/01/07 12:27:52;;;;;;;19.07;17.47;;;3.30;99.90;;;;;;4877698;29;20783;-78
2024/01/07 12:30:21;;;;;;;19.23;17.63;;;3.30;99.90;;;;;;4877073;29;20286;-78
2024/01/07 12:32:48;;;;;;;19.13;17.63;;;3.30;99.90;;;;;;4874575;29;20201;-81
2024/01/07 12:35:15;;;;;;;19.57;17.77;;;3.30;99.90;;;;;;4877899;29;20221;-78
2024/01/07 12:37:44;;;;;;;18.57;17.13;;;3.30;99.90;;;;;;4879586;29;20209;-80
2024/01/07 12:40:12;;;;;;;19.23;17.73;;;3.20;99.90;;;;;;4880101;29;20300;-81